Time;durP1;ratioP1;P1;durP2;ratioP2;P2;SDS_P1;SDS_P2;PMS_P1;PMS_P2;Temp;Humidity;BMP_temperature;BMP_pressure;BME280_temperature;BME280_humidity;BME280_pressure;Samples;Min_cycle;Max_cycle;Signal;HPM_P1;HPM_P2
2021/08/06 00:01:53;;;;;;;7.03;3.60;;;16.20;99.90;;;;;;12530569;28;20067;-85
2021/08/06 00:07:55;;;;;;;4.63;3.30;;;16.20;99.90;;;;;;12532618;28;20045;-86
2021/08/06 00:13:58;;;;;;;4.93;3.10;;;16.20;99.90;;;;;;12529141;28;20408;-86
2021/08/06 00:20:00;;;;;;;7.32;3.65;;;16.20;99.90;;;;;;12550257;28;20059;-87
2021/08/06 00:26:02;;;;;;;6.30;3.38;;;16.30;99.90;;;;;;12557844;28;20048;-87
2021/08/06 00:32:04;;;;;;;4.50;3.00;;;16.40;99.90;;;;;;12569405;28;20049;-86
2021/08/06 00:38:06;;;;;;;6.15;3.25;;;16.50;99.90;;;;;;12553478;28;20257;-87
2021/08/06 00:44:08;;;;;;;4.63;2.80;;;16.30;99.90;;;;;;12556626;28;20056;-86
2021/08/06 00:50:13;;;;;;;6.50;3.20;;;16.30;99.90;;;;;;12560825;28;20519;-86
2021/08/06 00:56:14;;;;;;;4.10;3.00;;;16.20;99.90;;;;;;12569982;28;20049;-86
2021/08/06 01:02:41;;;;;;;4.97;3.50;;;16.10;99.90;;;;;;12575361;28;20106;-86
2021/08/06 01:08:55;;;;;;;4.72;3.50;;;15.80;99.90;;;;;;12551141;28;20053;-86
2021/08/06 01:15:00;;;;;;;6.00;3.70;;;15.60;99.90;;;;;;12546907;28;20040;-86
2021/08/06 01:21:12;;;;;;;4.80;3.75;;;15.60;99.90;;;;;;12534351;28;20063;-86
2021/08/06 01:27:14;;;;;;;4.43;3.45;;;15.60;99.90;;;;;;12515339;28;20060;-84
2021/08/06 01:33:17;;;;;;;5.28;3.22;;;15.70;99.90;;;;;;12514504;28;20047;-86
2021/08/06 01:39:20;;;;;;;4.90;3.17;;;15.70;99.90;;;;;;12530199;28;20053;-86
2021/08/06 01:45:26;;;;;;;4.45;3.53;;;15.90;99.90;;;;;;12531496;28;20102;-88
2021/08/06 01:51:34;;;;;;;5.47;3.63;;;15.80;99.90;;;;;;12522399;28;20120;-87
2021/08/06 01:57:37;;;;;;;5.07;3.42;;;15.70;99.90;;;;;;12534552;28;20044;-86
2021/08/06 02:03:40;;;;;;;7.33;3.73;;;15.70;99.90;;;;;;12542917;28;20097;-87
2021/08/06 02:09:42;;;;;;;4.57;3.78;;;15.70;99.90;;;;;;12541476;28;20054;-87
2021/08/06 02:15:48;;;;;;;6.45;3.63;;;15.70;99.90;;;;;;12558521;28;20044;-87
2021/08/06 02:21:53;;;;;;;5.32;3.72;;;15.70;99.90;;;;;;12538735;28;20125;-87
2021/08/06 02:27:56;;;;;;;5.20;3.50;;;15.60;99.90;;;;;;12545555;28;20096;-87
2021/08/06 02:33:59;;;;;;;5.95;3.58;;;15.70;99.90;;;;;;12535143;28;20129;-87
2021/08/06 02:40:00;;;;;;;5.15;3.40;;;15.50;99.90;;;;;;12532492;28;20087;-86
2021/08/06 02:46:02;;;;;;;6.20;3.50;;;15.50;99.90;;;;;;12534997;28;20108;-86
2021/08/06 02:52:06;;;;;;;5.68;3.55;;;15.40;99.90;;;;;;12532995;28;20044;-86
2021/08/06 02:58:08;;;;;;;5.75;3.75;;;15.40;99.90;;;;;;12519782;28;20187;-87
2021/08/06 03:04:10;;;;;;;5.90;3.40;;;15.50;99.90;;;;;;12565407;28;20056;-86
2021/08/06 03:10:12;;;;;;;4.78;3.60;;;15.50;99.90;;;;;;12563571;28;20134;-86
2021/08/06 03:16:14;;;;;;;5.68;3.97;;;15.50;99.90;;;;;;12574368;28;20048;-87
2021/08/06 03:22:16;;;;;;;4.60;3.60;;;15.80;99.90;;;;;;12583333;28;20041;-87
2021/08/06 03:28:18;;;;;;;6.47;3.60;;;15.80;99.90;;;;;;12582184;28;20049;-87
2021/08/06 03:34:20;;;;;;;8.95;3.80;;;15.30;99.90;;;;;;12589594;28;20102;-87
2021/08/06 03:40:21;;;;;;;7.07;3.55;;;15.50;99.90;;;;;;12584651;28;20044;-86
2021/08/06 03:46:23;;;;;;;6.85;4.22;;;15.30;99.90;;;;;;12574584;28;20041;-87
2021/08/06 03:52:25;;;;;;;8.85;4.10;;;14.90;99.90;;;;;;12583549;28;20046;-87
2021/08/06 03:58:27;;;;;;;6.13;3.95;;;14.50;99.90;;;;;;12580938;28;20064;-87
2021/08/06 04:04:29;;;;;;;8.45;4.72;;;14.80;99.90;;;;;;12573892;28;20056;-87
2021/08/06 04:10:31;;;;;;;5.32;3.97;;;14.90;99.90;;;;;;12579248;28;20053;-87
2021/08/06 04:16:33;;;;;;;5.53;3.60;;;14.90;99.90;;;;;;12576307;28;20049;-87
2021/08/06 04:22:35;;;;;;;5.10;4.00;;;15.00;99.90;;;;;;12572217;28;20639;-87
2021/08/06 04:28:37;;;;;;;7.22;3.88;;;15.20;99.90;;;;;;12576122;28;20603;-87
2021/08/06 04:34:39;;;;;;;4.95;3.63;;;15.30;99.90;;;;;;12566484;28;20042;-87
2021/08/06 04:40:40;;;;;;;4.90;3.40;;;15.30;99.90;;;;;;12560560;28;20115;-87
2021/08/06 04:46:42;;;;;;;7.63;3.60;;;15.30;99.90;;;;;;12557523;28;20127;-87
2021/08/06 04:52:44;;;;;;;6.20;3.60;;;15.60;99.90;;;;;;12551711;28;20041;-87
2021/08/06 04:58:46;;;;;;;5.53;3.30;;;15.80;99.90;;;;;;12571480;28;20095;-88
2021/08/06 05:04:48;;;;;;;7.05;3.55;;;16.00;99.90;;;;;;12572457;28;20053;-88
2021/08/06 05:10:50;;;;;;;5.15;3.40;;;16.40;99.90;;;;;;12563078;28;20114;-86
2021/08/06 05:16:52;;;;;;;6.40;3.53;;;16.40;99.90;;;;;;12545495;28;20069;-87
2021/08/06 05:22:53;;;;;;;5.10;3.80;;;16.50;99.90;;;;;;12548866;28;20180;-88
2021/08/06 05:28:55;;;;;;;6.70;3.50;;;16.60;99.90;;;;;;12542615;28;20131;-87
2021/08/06 05:34:57;;;;;;;5.78;3.03;;;16.60;99.90;;;;;;12546206;28;20079;-88
2021/08/06 05:40:59;;;;;;;6.30;3.70;;;16.70;99.90;;;;;;12550394;28;20045;-87
2021/08/06 05:47:01;;;;;;;5.68;3.70;;;16.70;99.90;;;;;;12540358;28;20087;-87
2021/08/06 05:53:03;;;;;;;6.03;4.30;;;16.70;99.90;;;;;;12523503;28;20116;-88
2021/08/06 05:59:05;;;;;;;6.63;3.85;;;16.70;99.90;;;;;;12541688;28;20579;-86
2021/08/06 06:05:07;;;;;;;8.23;3.70;;;16.70;99.90;;;;;;12530927;28;20076;-87
2021/08/06 06:11:09;;;;;;;4.40;3.45;;;16.60;99.90;;;;;;12531658;28;20572;-87
2021/08/06 06:17:11;;;;;;;5.25;3.53;;;16.70;99.90;;;;;;12525476;28;20475;-86
2021/08/06 06:23:15;;;;;;;4.22;3.17;;;16.80;99.90;;;;;;12526648;28;20037;-88
2021/08/06 06:29:18;;;;;;;5.85;3.65;;;16.80;99.90;;;;;;12533152;28;20044;-86
2021/08/06 06:35:20;;;;;;;4.70;3.50;;;16.70;99.90;;;;;;12522493;28;20041;-87
2021/08/06 06:41:22;;;;;;;7.65;3.38;;;16.80;99.90;;;;;;12544792;28;20045;-88
2021/08/06 06:47:24;;;;;;;5.03;2.97;;;17.00;99.90;;;;;;12541762;28;20046;-86
2021/08/06 06:53:26;;;;;;;5.00;2.90;;;17.20;99.90;;;;;;12533698;28;20421;-87
2021/08/06 06:59:27;;;;;;;5.72;2.65;;;17.50;99.90;;;;;;12524386;28;20061;-84
2021/08/06 07:05:29;;;;;;;6.55;3.25;;;17.40;99.90;;;;;;12535437;28;20072;-87
2021/08/06 07:11:32;;;;;;;4.95;3.00;;;17.50;99.90;;;;;;12558495;28;20048;-86
2021/08/06 07:17:35;;;;;;;4.57;2.95;;;17.60;99.90;;;;;;12542667;28;20053;-87
2021/08/06 07:23:37;;;;;;;7.30;3.00;;;17.60;99.90;;;;;;12517741;28;20117;-87
2021/08/06 07:29:39;;;;;;;5.47;2.75;;;17.80;99.90;;;;;;12524325;28;20958;-88
2021/08/06 07:35:41;;;;;;;5.90;3.10;;;17.80;99.90;;;;;;12526258;28;20045;-85
2021/08/06 07:41:42;;;;;;;5.80;3.22;;;17.70;99.90;;;;;;12529706;28;20045;-86
2021/08/06 07:47:44;;;;;;;6.93;3.75;;;17.80;99.90;;;;;;12527382;28;20102;-86
2021/08/06 07:53:47;;;;;;;6.82;3.50;;;17.80;99.90;;;;;;12536457;28;20079;-85
2021/08/06 07:59:49;;;;;;;4.90;2.92;;;17.90;99.90;;;;;;12540624;28;20060;-87
2021/08/06 08:05:51;;;;;;;6.93;3.13;;;18.10;99.90;;;;;;12535408;28;20467;-85
2021/08/06 08:11:52;;;;;;;5.65;3.25;;;18.30;99.90;;;;;;12535923;28;20074;-85
2021/08/06 08:17:55;;;;;;;5.25;3.58;;;18.40;99.90;;;;;;12532789;28;20456;-87
2021/08/06 08:23:57;;;;;;;4.30;3.40;;;18.60;99.90;;;;;;12523652;28;20106;-87
2021/08/06 08:30:00;;;;;;;7.78;3.50;;;19.00;99.90;;;;;;12527887;28;20107;-87
2021/08/06 08:36:02;;;;;;;4.33;3.13;;;19.50;99.90;;;;;;12531459;28;20710;-87
2021/08/06 08:42:04;;;;;;;4.65;2.78;;;19.40;99.90;;;;;;12529176;28;20037;-88
2021/08/06 08:48:11;;;;;;;3.83;3.22;;;19.50;99.90;;;;;;12527818;28;20091;-86
2021/08/06 08:54:13;;;;;;;7.70;3.92;;;19.40;99.90;;;;;;12538573;28;20036;-85
2021/08/06 09:00:16;;;;;;;4.97;3.17;;;19.20;99.90;;;;;;12532846;28;20511;-87
2021/08/06 09:06:19;;;;;;;3.53;2.90;;;19.20;99.90;;;;;;12536554;28;20069;-87
2021/08/06 09:12:21;;;;;;;4.22;2.70;;;18.80;99.90;;;;;;12529175;28;20500;-88
2021/08/06 09:18:28;;;;;;;3.33;2.40;;;18.40;99.90;;;;;;12534658;28;20053;-88
2021/08/06 09:24:30;;;;;;;3.38;2.30;;;18.50;99.90;;;;;;12521946;28;20069;-89
2021/08/06 09:30:38;;;;;;;4.35;2.28;;;18.70;99.90;;;;;;12522946;28;20052;-88
2021/08/06 09:37:07;;;;;;;7.28;3.20;;;18.70;99.90;;;;;;12524454;28;20126;-88
2021/08/06 09:43:15;;;;;;;5.60;2.97;;;18.60;99.90;;;;;;12531983;28;20136;-88
2021/08/06 09:49:18;;;;;;;5.22;3.50;;;18.40;99.90;;;;;;12539755;28;20215;-87
2021/08/06 09:55:24;;;;;;;5.22;3.90;;;18.30;99.90;;;;;;12567957;28;20044;-86
2021/08/06 10:01:26;;;;;;;7.00;5.03;;;18.10;99.90;;;;;;12557171;28;20514;-87
2021/08/06 10:07:30;;;;;;;7.30;5.10;;;17.90;99.90;;;;;;12560614;28;20065;-88
2021/08/06 10:13:32;;;;;;;;;;;17.80;99.90;;;;;;12554573;28;20126;-87
2021/08/06 10:19:34;;;;;;;8.15;6.25;;;17.80;99.90;;;;;;12559631;28;20019;-89
2021/08/06 10:25:37;;;;;;;5.25;3.80;;;17.80;99.90;;;;;;12545159;28;20048;-88
2021/08/06 10:31:39;;;;;;;3.30;2.20;;;17.80;99.90;;;;;;12537692;28;20048;-87
2021/08/06 10:38:05;;;;;;;4.30;2.00;;;17.60;99.90;;;;;;12543358;28;20408;-87
2021/08/06 10:44:07;;;;;;;2.70;1.90;;;17.50;99.90;;;;;;12542067;28;20139;-87
2021/08/06 10:50:20;;;;;;;2.92;1.88;;;17.40;99.90;;;;;;12520262;28;20086;-87
2021/08/06 10:56:29;;;;;;;3.80;1.90;;;17.40;99.90;;;;;;12523417;28;20040;-87
2021/08/06 11:02:41;;;;;;;4.40;1.92;;;17.30;99.90;;;;;;12532449;28;20052;-87
2021/08/06 11:08:47;;;;;;;3.60;2.10;;;17.40;99.90;;;;;;12529873;28;20118;-87
2021/08/06 11:14:49;;;;;;;3.13;1.83;;;17.70;99.90;;;;;;12537266;28;20549;-88
2021/08/06 11:20:54;;;;;;;2.80;2.15;;;17.80;99.90;;;;;;12519295;28;20152;-89
2021/08/06 11:26:58;;;;;;;3.35;2.42;;;18.30;99.90;;;;;;12536429;28;20450;-88
2021/08/06 11:33:05;;;;;;;5.78;2.67;;;18.30;99.90;;;;;;12535583;28;20091;-88
2021/08/06 11:39:12;;;;;;;3.35;2.42;;;18.50;99.90;;;;;;12543461;28;20109;-88
2021/08/06 11:45:17;;;;;;;6.32;2.20;;;18.40;99.90;;;;;;12526846;28;20044;-88
2021/08/06 11:51:19;;;;;;;5.43;2.25;;;18.40;99.90;;;;;;12537251;28;20124;-85
2021/08/06 11:57:22;;;;;;;4.68;2.63;;;18.50;99.90;;;;;;12534453;28;20144;-87
2021/08/06 12:03:24;;;;;;;3.80;2.42;;;18.50;99.90;;;;;;12531994;28;20045;-87
2021/08/06 12:09:26;;;;;;;6.45;3.35;;;18.60;99.90;;;;;;12527981;28;20535;-87
2021/08/06 12:15:30;;;;;;;6.72;3.30;;;19.00;99.90;;;;;;12554607;28;20639;-87
2021/08/06 12:21:33;;;;;;;3.70;2.72;;;19.20;99.90;;;;;;12537466;28;20041;-87
2021/08/06 12:27:36;;;;;;;4.00;2.73;;;19.30;99.90;;;;;;12542171;28;20050;-87
2021/08/06 12:33:39;;;;;;;6.72;3.40;;;19.60;99.90;;;;;;12522040;28;20073;-87
2021/08/06 12:39:47;;;;;;;5.63;2.95;;;19.30;99.90;;;;;;12529986;28;20052;-86
2021/08/06 12:46:16;;;;;;;4.35;3.28;;;18.90;99.90;;;;;;12528947;28;20140;-85
2021/08/06 12:52:30;;;;;;;6.50;4.10;;;18.80;99.90;;;;;;12538121;28;20332;-87
2021/08/06 12:58:32;;;;;;;5.55;4.68;;;18.60;99.90;;;;;;12548562;28;20113;-86
2021/08/06 13:04:33;;;;;;;6.40;4.20;;;18.50;99.90;;;;;;12530400;28;20098;-86
2021/08/06 13:10:35;;;;;;;4.60;3.42;;;18.60;99.90;;;;;;12540220;28;20466;-86
2021/08/06 13:16:37;;;;;;;2.90;1.90;;;18.90;99.90;;;;;;12527092;28;21013;-86
2021/08/06 13:22:41;;;;;;;2.50;1.50;;;19.90;99.90;;;;;;12540637;28;20055;-87
2021/08/06 13:28:42;;;;;;;1.90;1.23;;;20.20;99.90;;;;;;12529459;28;20118;-88
2021/08/06 13:34:44;;;;;;;4.25;2.42;;;19.50;99.90;;;;;;12537688;28;20113;-86
2021/08/06 13:40:46;;;;;;;4.10;2.55;;;19.40;99.90;;;;;;12520195;28;20526;-85
2021/08/06 13:46:48;;;;;;;4.13;2.65;;;19.70;99.90;;;;;;12525877;28;20090;-84
2021/08/06 13:52:50;;;;;;;4.88;3.53;;;19.50;99.90;;;;;;12532903;28;20164;-85
2021/08/06 13:58:54;;;;;;;;;;;19.40;99.90;;;;;;12561075;28;20041;-86
2021/08/06 14:04:56;;;;;;;6.80;4.72;;;19.20;99.90;;;;;;12532128;28;19985;-86
2021/08/06 14:10:58;;;;;;;6.07;4.40;;;19.00;99.90;;;;;;12535816;28;20132;-87
2021/08/06 14:17:00;;;;;;;6.47;5.18;;;19.10;99.90;;;;;;12534486;28;20057;-86
2021/08/06 14:23:02;;;;;;;5.82;4.78;;;19.10;99.90;;;;;;12529125;28;20396;-85
2021/08/06 14:29:04;;;;;;;7.35;5.20;;;19.00;99.90;;;;;;12532657;28;20602;-84
2021/08/06 14:35:06;;;;;;;7.57;5.07;;;19.20;99.90;;;;;;12528568;28;20037;-86
2021/08/06 14:41:08;;;;;;;7.60;3.70;;;19.10;99.90;;;;;;12529268;28;20622;-87
2021/08/06 14:47:10;;;;;;;3.38;1.98;;;19.00;99.90;;;;;;12532422;28;20053;-87
2021/08/06 14:53:12;;;;;;;4.07;2.38;;;19.10;99.90;;;;;;12535852;28;20462;-87
2021/08/06 14:59:14;;;;;;;6.32;2.55;;;19.60;99.90;;;;;;12528998;28;20049;-87
2021/08/06 15:05:15;;;;;;;5.97;2.65;;;20.70;99.90;;;;;;12528926;28;20076;-85
2021/08/06 15:11:17;;;;;;;3.65;1.73;;;21.20;99.90;;;;;;12537509;28;20144;-85
2021/08/06 15:17:19;;;;;;;2.65;1.63;;;20.90;99.90;;;;;;12534864;28;20688;-85
2021/08/06 15:23:21;;;;;;;4.13;1.52;;;20.30;99.90;;;;;;12538117;28;20104;-87
2021/08/06 15:29:23;;;;;;;5.03;1.80;;;20.00;99.90;;;;;;12533415;28;20179;-87
2021/08/06 15:35:25;;;;;;;3.75;1.55;;;19.90;99.90;;;;;;12531219;28;20098;-87
2021/08/06 15:41:27;;;;;;;2.40;1.50;;;20.50;99.90;;;;;;12533788;28;20066;-84
2021/08/06 15:47:29;;;;;;;2.72;1.30;;;20.90;99.90;;;;;;12536123;28;20053;-86
2021/08/06 15:53:30;;;;;;;2.45;1.20;;;20.70;99.90;;;;;;12540259;28;20045;-87
2021/08/06 15:59:33;;;;;;;2.50;1.17;;;20.80;99.90;;;;;;12536992;28;20598;-85
2021/08/06 16:05:35;;;;;;;4.53;1.40;;;19.90;99.90;;;;;;12530493;28;20044;-87
2021/08/06 16:11:37;;;;;;;2.30;0.98;;;20.20;99.90;;;;;;12523365;28;20463;-86
2021/08/06 16:17:39;;;;;;;3.40;0.95;;;20.50;99.90;;;;;;12527551;28;20144;-88
2021/08/06 16:23:41;;;;;;;4.88;1.13;;;20.50;99.90;;;;;;12521529;28;20162;-87
2021/08/06 16:29:43;;;;;;;2.05;0.90;;;20.60;99.90;;;;;;12528234;28;20053;-88
2021/08/06 16:35:45;;;;;;;3.40;1.10;;;20.70;99.90;;;;;;12514911;28;20143;-87
2021/08/06 16:41:48;;;;;;;2.83;1.30;;;21.10;99.90;;;;;;12527936;28;20041;-87
2021/08/06 16:47:49;;;;;;;2.57;1.47;;;20.90;99.90;;;;;;12510888;28;20141;-87
2021/08/06 16:53:51;;;;;;;2.92;1.40;;;20.80;99.90;;;;;;12527568;28;20122;-88
2021/08/06 16:59:53;;;;;;;3.63;1.10;;;21.40;99.90;;;;;;12524344;28;20486;-87
2021/08/06 17:05:55;;;;;;;3.35;1.30;;;21.20;99.90;;;;;;12531687;28;20141;-86
2021/08/06 17:11:57;;;;;;;2.95;1.20;;;21.00;99.90;;;;;;12531227;28;20127;-87
2021/08/06 17:18:00;;;;;;;3.15;1.42;;;20.80;99.90;;;;;;12550413;28;20131;-88
2021/08/06 17:24:02;;;;;;;4.77;1.50;;;20.30;99.90;;;;;;12539175;28;20110;-88
2021/08/06 17:30:05;;;;;;;4.95;1.63;;;19.80;99.90;;;;;;12528467;28;20049;-89
2021/08/06 17:36:07;;;;;;;3.78;1.60;;;19.40;99.90;;;;;;12531473;28;20049;-88
2021/08/06 17:42:09;;;;;;;5.05;1.80;;;19.20;99.90;;;;;;12516615;28;20045;-88
2021/08/06 17:48:11;;;;;;;3.53;1.60;;;19.00;99.90;;;;;;12527944;28;20412;-87
2021/08/06 17:54:13;;;;;;;4.38;1.73;;;18.90;99.90;;;;;;12519117;28;20102;-88
2021/08/06 18:00:15;;;;;;;3.65;1.67;;;18.80;99.90;;;;;;12528128;28;20048;-87
2021/08/06 18:06:17;;;;;;;4.80;1.80;;;18.70;99.90;;;;;;12522289;28;20446;-88
2021/08/06 18:12:19;;;;;;;3.80;1.65;;;18.50;99.90;;;;;;12518451;28;20076;-87
2021/08/06 18:18:21;;;;;;;5.80;2.38;;;18.40;99.90;;;;;;12526272;28;20597;-88
2021/08/06 18:24:23;;;;;;;4.75;2.40;;;18.40;99.90;;;;;;12511628;28;20079;-87
2021/08/06 18:30:26;;;;;;;4.85;2.08;;;18.30;99.90;;;;;;12520467;28;20053;-87
2021/08/06 18:36:28;;;;;;;4.53;1.70;;;18.40;99.90;;;;;;12509592;28;20054;-87
2021/08/06 18:42:30;;;;;;;6.68;1.75;;;18.40;99.90;;;;;;12523315;28;20053;-88
2021/08/06 18:48:32;;;;;;;5.85;1.90;;;18.40;99.90;;;;;;12526133;28;20060;-88
2021/08/06 18:54:34;;;;;;;4.70;1.73;;;18.40;99.90;;;;;;12520321;28;20044;-88
2021/08/06 19:00:36;;;;;;;6.72;2.35;;;18.70;99.90;;;;;;12517383;28;20048;-88
2021/08/06 19:06:38;;;;;;;4.28;2.17;;;18.60;99.90;;;;;;12523932;28;20064;-87
2021/08/06 19:12:40;;;;;;;8.65;2.83;;;18.70;99.90;;;;;;12524218;28;20097;-88
2021/08/06 19:18:43;;;;;;;6.40;3.15;;;18.60;99.90;;;;;;12515365;28;20098;-87
2021/08/06 19:24:44;;;;;;;5.32;2.95;;;18.30;99.90;;;;;;12517191;28;20041;-87
2021/08/06 19:30:47;;;;;;;6.18;3.20;;;18.00;99.90;;;;;;12516521;28;20413;-87
2021/08/06 19:36:55;;;;;;;5.15;3.33;;;17.70;99.90;;;;;;12519964;28;20076;-87
2021/08/06 19:42:57;;;;;;;5.85;2.97;;;17.60;99.90;;;;;;12522867;28;20134;-87
2021/08/06 19:49:00;;;;;;;5.72;3.40;;;17.40;99.90;;;;;;12529711;28;20086;-87
2021/08/06 19:55:04;;;;;;;5.85;3.30;;;17.40;99.90;;;;;;12524345;28;20085;-86
2021/08/06 20:01:07;;;;;;;5.22;3.03;;;17.20;99.90;;;;;;12520468;28;20113;-87
2021/08/06 20:07:10;;;;;;;7.13;3.30;;;17.10;99.90;;;;;;12522809;28;20408;-87
2021/08/06 20:13:15;;;;;;;6.07;2.33;;;16.80;99.90;;;;;;12536442;28;20044;-86
2021/08/06 20:19:17;;;;;;;6.25;2.50;;;16.70;99.90;;;;;;12533288;28;20041;-86
2021/08/06 20:25:19;;;;;;;4.82;2.40;;;16.60;99.90;;;;;;12551344;28;20052;-87
2021/08/06 20:31:21;;;;;;;6.80;2.10;;;16.60;99.90;;;;;;12535924;28;20041;-87
2021/08/06 20:37:23;;;;;;;4.65;1.90;;;16.50;99.90;;;;;;12532142;28;20047;-86
2021/08/06 20:43:25;;;;;;;4.63;2.30;;;16.60;99.90;;;;;;12533023;28;20438;-86
2021/08/06 20:49:27;;;;;;;4.45;1.90;;;16.80;99.90;;;;;;12529064;28;21005;-86
2021/08/06 20:55:28;;;;;;;5.40;2.20;;;16.70;99.90;;;;;;12535574;28;20076;-86
2021/08/06 21:01:30;;;;;;;4.43;1.95;;;16.90;99.90;;;;;;12527269;28;20049;-86
2021/08/06 21:07:36;;;;;;;4.03;2.30;;;16.70;99.90;;;;;;12531502;28;20584;-86
2021/08/06 21:13:38;;;;;;;6.18;2.03;;;16.60;99.90;;;;;;12517019;28;20090;-86
2021/08/06 21:19:40;;;;;;;3.78;1.90;;;16.50;99.90;;;;;;12532592;28;20073;-86
2021/08/06 21:25:42;;;;;;;3.35;2.03;;;16.40;99.90;;;;;;12521424;28;20063;-86
2021/08/06 21:31:43;;;;;;;5.13;2.00;;;16.50;99.90;;;;;;12524145;28;20045;-86
2021/08/06 21:37:45;;;;;;;9.45;2.30;;;16.50;99.90;;;;;;12528857;28;20052;-86
2021/08/06 21:43:48;;;;;;;4.35;2.25;;;16.70;99.90;;;;;;12524739;28;20055;-86
2021/08/06 21:49:50;;;;;;;3.65;2.10;;;16.60;99.90;;;;;;12528037;28;20109;-86
2021/08/06 21:55:51;;;;;;;4.63;2.08;;;16.50;99.90;;;;;;12521757;28;20100;-85
2021/08/06 22:01:53;;;;;;;3.03;2.08;;;16.40;99.90;;;;;;12527769;28;20560;-85
2021/08/06 22:07:55;;;;;;;9.98;2.65;;;16.30;99.90;;;;;;12528911;28;20056;-85
2021/08/06 22:13:57;;;;;;;4.80;2.38;;;16.40;99.90;;;;;;12522052;28;20089;-85
2021/08/06 22:20:01;;;;;;;3.40;1.88;;;16.40;99.90;;;;;;12520858;28;20080;-85
2021/08/06 22:26:03;;;;;;;4.68;2.25;;;16.50;99.90;;;;;;12524952;28;20134;-85
2021/08/06 22:32:05;;;;;;;5.78;2.60;;;16.30;99.90;;;;;;12529281;28;20051;-85
2021/08/06 22:38:07;;;;;;;7.43;2.60;;;16.30;99.90;;;;;;12526236;28;20519;-85
2021/08/06 22:44:09;;;;;;;5.45;2.42;;;16.30;99.90;;;;;;12518565;28;20074;-86
2021/08/06 22:50:11;;;;;;;4.97;2.47;;;16.20;99.90;;;;;;12522519;28;20540;-85
2021/08/06 22:56:13;;;;;;;5.22;2.35;;;16.00;99.90;;;;;;12513671;28;20486;-85
2021/08/06 23:02:14;;;;;;;5.22;2.03;;;16.00;99.90;;;;;;12529837;28;20369;-86
2021/08/06 23:08:17;;;;;;;5.85;2.45;;;16.10;99.90;;;;;;12513897;28;20106;-86
2021/08/06 23:14:19;;;;;;;4.50;2.08;;;16.10;99.90;;;;;;12526669;28;20633;-86
2021/08/06 23:20:21;;;;;;;4.25;1.80;;;16.00;99.90;;;;;;12532857;28;20094;-86
2021/08/06 23:26:23;;;;;;;4.65;1.70;;;16.00;99.90;;;;;;12526031;28;20056;-86
2021/08/06 23:32:24;;;;;;;5.22;1.88;;;16.00;99.90;;;;;;12529461;28;20129;-86
2021/08/06 23:38:26;;;;;;;5.70;1.80;;;16.00;99.90;;;;;;12535427;28;20053;-86
2021/08/06 23:44:28;;;;;;;8.30;1.75;;;16.00;99.90;;;;;;12535479;28;20060;-86
2021/08/06 23:50:30;;;;;;;6.63;1.75;;;15.90;99.90;;;;;;12524662;28;20056;-86
2021/08/06 23:56:32;;;;;;;4.75;1.90;;;15.90;99.90;;;;;;12530863;28;20138;-87
